createdAt,value
2022-10-21T00:01:00.169Z,50.68
2022-10-21T00:03:37.641Z,50.76
2022-10-21T00:06:06.775Z,50.67
2022-10-21T00:08:34.894Z,50.99
2022-10-21T00:11:06.719Z,50.97
2022-10-21T00:13:38.661Z,50.79
2022-10-21T00:16:15.308Z,50.67
2022-10-21T00:18:45.596Z,50.75
2022-10-21T00:21:20.074Z,50.80
2022-10-21T00:23:49.988Z,50.58
2022-10-21T00:26:19.115Z,50.40
2022-10-21T00:28:47.121Z,50.60
2022-10-21T00:31:16.491Z,50.78
2022-10-21T00:33:44.786Z,50.35
2022-10-21T00:36:15.999Z,50.53
2022-10-21T00:38:46.342Z,50.58
2022-10-21T00:41:17.472Z,50.83
2022-10-21T00:44:07.002Z,50.62
2022-10-21T00:46:40.632Z,50.66
2022-10-21T00:49:34.264Z,50.72
2022-10-21T00:52:06.187Z,50.87
2022-10-21T00:54:34.563Z,50.67
2022-10-21T00:57:02.340Z,50.37
2022-10-21T00:59:36.273Z,50.51
2022-10-21T01:02:04.708Z,50.32
2022-10-21T01:04:32.176Z,50.34
2022-10-21T01:07:01.930Z,50.20
2022-10-21T01:09:30.215Z,50.22
2022-10-21T01:11:58.762Z,50.05
2022-10-21T01:14:54.497Z,50.16
2022-10-21T01:18:15.730Z,50.12
2022-10-21T01:20:58.021Z,50.11
2022-10-21T01:23:53.148Z,50.18
2022-10-21T01:26:54.334Z,50.11
2022-10-21T01:29:51.159Z,50.52
2022-10-21T01:33:06.475Z,50.32
2022-10-21T01:35:46.164Z,50.42
2022-10-21T01:38:38.720Z,50.79
2022-10-21T01:41:26.540Z,50.71
2022-10-21T01:44:28.006Z,50.74
2022-10-21T01:47:16.748Z,51.26
2022-10-21T01:49:56.018Z,51.06
2022-10-21T01:52:23.776Z,50.83
2022-10-21T01:54:59.494Z,51.17
2022-10-21T01:57:32.488Z,51.08
2022-10-21T02:00:01.782Z,51.02
2022-10-21T02:02:37.597Z,51.07
2022-10-21T02:05:21.562Z,51.28
2022-10-21T02:07:50.159Z,51.42
2022-10-21T02:10:19.748Z,51.78
2022-10-21T02:12:51.587Z,51.61
2022-10-21T02:15:22.001Z,51.57
2022-10-21T02:17:57.574Z,51.87
2022-10-21T02:20:28.278Z,51.76
2022-10-21T02:22:56.047Z,51.78
2022-10-21T02:25:33.459Z,51.99
2022-10-21T02:28:01.587Z,51.89
2022-10-21T02:30:40.312Z,52.14
2022-10-21T02:33:16.645Z,51.90
2022-10-21T02:36:17.046Z,52.30
2022-10-21T02:38:53.950Z,52.31
2022-10-21T02:41:24.968Z,52.31
2022-10-21T02:44:02.767Z,52.63
2022-10-21T02:46:44.569Z,52.77
2022-10-21T02:49:12.950Z,52.74
2022-10-21T02:51:42.041Z,53.21
2022-10-21T02:54:09.896Z,53.25
2022-10-21T02:56:37.482Z,53.69
2022-10-21T02:59:05.261Z,53.85
2022-10-21T03:01:32.680Z,54.09
2022-10-21T03:04:00.414Z,54.22
2022-10-21T03:06:27.853Z,54.67
2022-10-21T03:08:55.711Z,54.78
2022-10-21T03:11:23.343Z,54.89
2022-10-21T03:13:51.089Z,55.17
2022-10-21T03:18:51.207Z,55.75
2022-10-21T03:21:18.706Z,55.61
2022-10-21T03:23:46.443Z,56.00
2022-10-21T03:26:13.929Z,56.15
2022-10-21T03:28:41.641Z,56.93
2022-10-21T03:31:09.226Z,57.20
2022-10-21T03:33:37.079Z,57.29
2022-10-21T03:36:05.549Z,57.61
2022-10-21T03:38:33.388Z,57.56
2022-10-21T03:41:00.837Z,57.54
2022-10-21T03:43:28.533Z,57.87
2022-10-21T03:45:55.977Z,57.82
2022-10-21T03:48:23.838Z,58.03
2022-10-21T03:50:51.264Z,58.09
2022-10-21T03:53:38.127Z,58.00
2022-10-21T03:56:07.030Z,58.19
2022-10-21T03:58:35.774Z,58.44
2022-10-21T04:01:03.425Z,58.79
2022-10-21T04:03:31.157Z,58.93
2022-10-21T04:05:58.585Z,59.25
2022-10-21T04:08:26.265Z,59.31
2022-10-21T04:10:56.781Z,59.21
2022-10-21T04:13:43.543Z,59.73
2022-10-21T04:16:18.357Z,60.90
2022-10-21T04:18:47.201Z,61.35
2022-10-21T04:21:14.940Z,61.62
2022-10-21T04:23:42.693Z,61.36
2022-10-21T04:26:11.763Z,62.00
2022-10-21T04:28:39.593Z,61.82
2022-10-21T04:31:07.157Z,62.33
2022-10-21T04:33:35.038Z,62.33
2022-10-21T04:36:02.692Z,62.39
2022-10-21T04:38:30.568Z,62.68
2022-10-21T04:40:59.619Z,63.51
2022-10-21T04:43:27.968Z,63.42
2022-10-21T04:45:55.862Z,63.93
2022-10-21T04:48:23.882Z,64.45
2022-10-21T04:50:52.789Z,64.97
2022-10-21T04:53:21.792Z,64.78
2022-10-21T04:55:55.209Z,65.14
2022-10-21T04:58:23.255Z,65.69
2022-10-21T05:00:51.889Z,66.10
2022-10-21T05:03:20.587Z,66.14
2022-10-21T05:05:52.897Z,65.91
2022-10-21T05:08:21.330Z,65.62
2022-10-21T05:10:49.346Z,65.65
2022-10-21T05:13:17.193Z,65.56
2022-10-21T05:15:44.709Z,65.97
2022-10-21T05:18:12.439Z,65.85
2022-10-21T05:20:39.867Z,65.50
2022-10-21T05:23:07.620Z,65.22
2022-10-21T05:25:35.112Z,65.77
2022-10-21T05:28:02.923Z,65.72
2022-10-21T05:30:30.411Z,65.50
2022-10-21T05:32:58.107Z,65.95
2022-10-21T05:35:25.541Z,65.64
2022-10-21T05:37:53.270Z,65.61
2022-10-21T05:40:20.759Z,65.35
2022-10-21T05:42:48.530Z,65.43
2022-10-21T05:45:16.116Z,65.61
2022-10-21T05:47:44.453Z,65.96
2022-10-21T05:50:13.196Z,65.80
2022-10-21T05:52:41.550Z,65.67
2022-10-21T05:55:10.262Z,65.66
2022-10-21T05:57:39.163Z,65.64
2022-10-21T06:00:08.190Z,65.97
2022-10-21T06:02:36.827Z,65.85
2022-10-21T06:05:04.937Z,66.29
2022-10-21T06:07:32.871Z,66.44
2022-10-21T06:10:00.313Z,66.44
2022-10-21T06:12:28.176Z,66.25
2022-10-21T06:14:55.823Z,66.35
2022-10-21T06:17:23.611Z,65.77
2022-10-21T06:19:51.263Z,65.79
2022-10-21T06:22:18.933Z,65.85
2022-10-21T06:24:47.284Z,65.80
2022-10-21T06:27:15.161Z,65.50
2022-10-21T06:29:42.653Z,65.41
2022-10-21T06:32:11.683Z,65.53
2022-10-21T06:34:39.724Z,65.50
2022-10-21T06:37:09.078Z,65.31
2022-10-21T06:39:36.581Z,65.17
2022-10-21T06:42:04.320Z,64.53
2022-10-21T06:44:40.474Z,64.16
2022-10-21T06:47:09.168Z,63.65
2022-10-21T06:49:36.660Z,63.67
2022-10-21T06:52:04.882Z,63.09
2022-10-21T06:54:32.552Z,62.65
2022-10-21T06:57:00.583Z,62.88
2022-10-21T06:59:28.455Z,62.88
2022-10-21T07:02:00.075Z,62.04
2022-10-21T07:04:29.330Z,62.83
2022-10-21T07:06:57.248Z,62.63
2022-10-21T07:09:24.768Z,63.46
2022-10-21T07:11:52.600Z,62.71
2022-10-21T07:14:20.164Z,62.84
2022-10-21T07:16:48.352Z,62.67
2022-10-21T07:19:15.834Z,62.88
2022-10-21T07:21:44.232Z,62.02
2022-10-21T07:24:11.752Z,62.89
2022-10-21T07:26:40.293Z,61.88
2022-10-21T07:29:07.869Z,61.16
2022-10-21T07:31:38.148Z,61.30
2022-10-21T07:34:08.425Z,60.78
2022-10-21T07:36:44.403Z,60.66
2022-10-21T07:39:16.058Z,59.82
2022-10-21T07:41:51.808Z,59.75
2022-10-21T07:44:21.880Z,58.86
2022-10-21T07:46:51.482Z,58.25
2022-10-21T07:49:20.774Z,58.31
2022-10-21T07:51:50.445Z,58.92
2022-10-21T07:54:18.801Z,57.18
2022-10-21T07:56:50.827Z,56.44
2022-10-21T07:59:20.470Z,56.92
2022-10-21T08:04:20.933Z,56.49
2022-10-21T08:06:49.654Z,56.04
2022-10-21T08:09:17.838Z,55.63
2022-10-21T08:11:45.702Z,57.04
2022-10-21T08:14:15.798Z,56.01
2022-10-21T08:16:43.623Z,56.95
2022-10-21T08:19:27.316Z,57.04
2022-10-21T08:21:56.135Z,56.24
2022-10-21T08:24:23.986Z,56.58
2022-10-21T08:26:52.143Z,55.08
2022-10-21T08:29:19.803Z,54.52
2022-10-21T08:31:47.591Z,53.83
2022-10-21T08:34:15.111Z,53.69
2022-10-21T08:36:42.981Z,53.59
2022-10-21T08:39:10.569Z,53.84
2022-10-21T08:42:05.044Z,53.96
2022-10-21T08:45:07.404Z,53.71
2022-10-21T08:47:47.157Z,53.50
2022-10-21T08:50:42.885Z,52.12
2022-10-21T08:53:33.448Z,52.29
2022-10-21T08:56:17.157Z,51.83
2022-10-21T08:58:51.102Z,52.67
2022-10-21T09:01:32.192Z,52.28
2022-10-21T09:04:40.810Z,51.70
2022-10-21T09:07:39.676Z,51.79
2022-10-21T09:10:41.662Z,51.33
2022-10-21T09:13:49.474Z,50.53
2022-10-21T09:16:46.186Z,50.53
2022-10-21T09:19:36.131Z,50.57
2022-10-21T09:22:39.422Z,50.86
2022-10-21T09:25:27.053Z,50.06
2022-10-21T09:27:57.065Z,50.05
2022-10-21T09:30:25.860Z,51.06
2022-10-21T09:33:00.732Z,50.01
2022-10-21T09:35:54.742Z,49.59
2022-10-21T09:38:40.319Z,49.45
2022-10-21T09:41:19.302Z,50.47
2022-10-21T09:43:48.975Z,48.80
2022-10-21T09:46:17.053Z,48.77
2022-10-21T09:49:25.905Z,48.91
2022-10-21T09:51:42.691Z,48.77
2022-10-21T09:54:19.833Z,49.52
2022-10-21T09:57:00.884Z,48.95
2022-10-21T09:59:33.221Z,49.64
2022-10-21T10:02:15.440Z,49.08
2022-10-21T10:04:43.247Z,48.43
2022-10-21T10:07:27.719Z,48.76
2022-10-21T10:09:55.792Z,48.86
2022-10-21T10:12:29.278Z,47.73
2022-10-21T10:14:57.312Z,47.62
2022-10-21T10:17:29.023Z,48.02
2022-10-21T10:20:05.615Z,47.73
2022-10-21T10:22:43.610Z,47.63
2022-10-21T10:25:24.234Z,46.56
2022-10-21T10:28:10.113Z,46.02
2022-10-21T10:30:50.522Z,47.14
2022-10-21T10:33:28.342Z,48.76
2022-10-21T10:36:09.168Z,46.98
2022-10-21T10:38:55.245Z,47.38
2022-10-21T10:41:34.501Z,46.53
2022-10-21T10:44:09.142Z,46.96
2022-10-21T10:46:38.884Z,46.43
2022-10-21T10:49:15.814Z,45.65
2022-10-21T10:51:47.764Z,45.46
2022-10-21T10:54:28.630Z,45.48
2022-10-21T10:57:10.628Z,44.97
2022-10-21T11:00:09.366Z,44.45
2022-10-21T11:02:56.004Z,45.20
2022-10-21T11:06:05.844Z,44.52
2022-10-21T11:08:45.481Z,44.86
2022-10-21T11:11:45.623Z,43.93
2022-10-21T11:14:21.806Z,43.63
2022-10-21T11:17:01.353Z,43.23
2022-10-21T11:19:58.303Z,42.59
2022-10-21T11:23:02.919Z,42.54
2022-10-21T11:25:46.942Z,42.83
2022-10-21T11:29:05.637Z,42.40
2022-10-21T11:32:12.330Z,43.08
2022-10-21T11:35:16.222Z,41.56
2022-10-21T11:38:37.439Z,40.77
2022-10-21T11:44:29.251Z,40.90
2022-10-21T11:47:17.335Z,39.57
2022-10-21T11:53:30.482Z,39.46
2022-10-21T11:56:09.398Z,39.02
2022-10-21T11:58:52.346Z,38.80
2022-10-21T12:02:01.288Z,38.52
2022-10-21T12:04:50.029Z,38.13
2022-10-21T12:07:58.449Z,38.53
2022-10-21T12:10:43.951Z,37.79
2022-10-21T12:13:36.887Z,37.81
2022-10-21T12:16:19.042Z,37.51
2022-10-21T12:18:58.007Z,37.56
2022-10-21T12:21:30.910Z,37.51
2022-10-21T12:24:30.707Z,37.86
2022-10-21T12:27:18.664Z,37.59
2022-10-21T12:30:06.801Z,38.06
2022-10-21T12:32:52.306Z,37.85
2022-10-21T12:35:40.446Z,37.43
2022-10-21T12:38:24.346Z,37.76
2022-10-21T12:41:23.784Z,38.21
2022-10-21T12:44:05.825Z,37.66
2022-10-21T12:46:49.083Z,37.13
2022-10-21T12:49:32.666Z,36.67
2022-10-21T12:52:02.830Z,36.25
2022-10-21T12:54:51.332Z,36.45
2022-10-21T12:57:45.232Z,36.05
2022-10-21T13:00:28.070Z,36.01
2022-10-21T13:03:22.310Z,35.39
2022-10-21T13:05:53.051Z,35.46
2022-10-21T13:08:29.691Z,35.92
2022-10-21T13:11:36.758Z,35.23
2022-10-21T13:14:54.771Z,34.46
2022-10-21T13:17:22.450Z,34.82
2022-10-21T13:19:55.028Z,34.86
2022-10-21T13:22:36.038Z,34.67
2022-10-21T13:25:35.330Z,34.00
2022-10-21T13:28:19.906Z,33.99
2022-10-21T13:30:50.334Z,33.60
2022-10-21T13:33:22.120Z,33.82
2022-10-21T13:36:08.264Z,33.90
2022-10-21T13:38:46.713Z,34.37
2022-10-21T13:41:28.338Z,34.93
2022-10-21T13:44:05.852Z,35.20
2022-10-21T13:46:42.573Z,34.89
2022-10-21T13:49:30.695Z,34.77
2022-10-21T13:51:58.433Z,35.06
2022-10-21T13:54:26.355Z,34.95
2022-10-21T13:56:53.793Z,35.22
2022-10-21T13:59:34.687Z,35.26
2022-10-21T14:02:04.220Z,35.46
2022-10-21T14:04:34.312Z,35.47
2022-10-21T14:07:09.193Z,35.83
2022-10-21T14:09:50.909Z,36.24
2022-10-21T14:12:25.215Z,36.29
2022-10-21T14:14:57.911Z,36.11
2022-10-21T14:17:27.505Z,36.09
2022-10-21T14:20:27.295Z,35.73
2022-10-21T14:22:55.942Z,35.66
2022-10-21T14:25:23.836Z,34.89
2022-10-21T14:27:51.552Z,34.95
2022-10-21T14:30:26.403Z,35.83
2022-10-21T14:32:56.920Z,35.26
2022-10-21T14:35:29.696Z,35.83
2022-10-21T14:38:03.262Z,36.06
2022-10-21T14:40:38.107Z,36.67
2022-10-21T14:43:34.594Z,36.98
2022-10-21T14:46:06.391Z,37.89
2022-10-21T14:48:59.809Z,37.95
2022-10-21T14:51:27.931Z,38.58
2022-10-21T14:54:04.186Z,39.00
2022-10-21T14:56:40.662Z,39.05
2022-10-21T14:59:34.346Z,39.74
2022-10-21T15:02:03.198Z,39.96
2022-10-21T15:04:50.967Z,40.47
2022-10-21T15:07:38.809Z,40.94
2022-10-21T15:10:07.276Z,41.02
2022-10-21T15:12:51.433Z,41.49
2022-10-21T15:15:40.404Z,41.45
2022-10-21T15:18:15.183Z,41.80
2022-10-21T15:21:01.900Z,41.79
2022-10-21T15:23:43.178Z,42.31
2022-10-21T15:26:32.178Z,42.42
2022-10-21T15:28:59.945Z,42.63
2022-10-21T15:31:29.245Z,42.60
2022-10-21T15:33:58.682Z,42.88
2022-10-21T15:36:26.299Z,43.01
2022-10-21T15:38:55.383Z,43.08
2022-10-21T15:41:25.939Z,43.17
2022-10-21T15:43:56.591Z,43.30
2022-10-21T15:46:26.703Z,43.35
2022-10-21T15:48:55.375Z,43.48
2022-10-21T15:51:22.998Z,43.63
2022-10-21T15:53:50.698Z,43.96
2022-10-21T15:56:20.048Z,44.17
2022-10-21T15:58:48.172Z,44.26
2022-10-21T16:01:17.523Z,44.82
2022-10-21T16:03:45.816Z,45.26
2022-10-21T16:06:19.878Z,45.44
2022-10-21T16:08:49.437Z,45.68
2022-10-21T16:11:25.646Z,45.38
2022-10-21T16:14:05.661Z,46.00
2022-10-21T16:16:33.313Z,45.73
2022-10-21T16:19:01.062Z,45.97
2022-10-21T16:21:28.609Z,45.86
2022-10-21T16:23:57.018Z,45.75
2022-10-21T16:26:29.382Z,45.68
2022-10-21T16:28:58.064Z,46.63
2022-10-21T16:31:27.601Z,45.61
2022-10-21T16:33:55.357Z,45.54
2022-10-21T16:36:27.648Z,45.56
2022-10-21T16:38:55.629Z,45.47
2022-10-21T16:41:28.200Z,45.34
2022-10-21T16:43:56.681Z,45.87
2022-10-21T16:46:35.681Z,45.94
2022-10-21T16:49:13.925Z,45.69
2022-10-21T16:51:46.253Z,45.48
2022-10-21T16:54:15.432Z,45.72
2022-10-21T16:56:43.482Z,45.77
2022-10-21T16:59:11.998Z,45.80
2022-10-21T17:01:39.784Z,45.74
2022-10-21T17:04:07.595Z,46.04
2022-10-21T17:06:35.057Z,46.12
2022-10-21T17:09:02.850Z,46.21
2022-10-21T17:11:38.174Z,46.32
2022-10-21T17:14:11.959Z,46.43
2022-10-21T17:16:40.220Z,46.53
2022-10-21T17:19:08.243Z,46.55
2022-10-21T17:21:35.799Z,46.60
2022-10-21T17:24:04.936Z,46.65
2022-10-21T17:26:36.742Z,46.54
2022-10-21T17:29:04.464Z,47.03
2022-10-21T17:31:32.289Z,46.83
2022-10-21T17:34:07.536Z,47.28
2022-10-21T17:36:35.966Z,46.90
2022-10-21T17:39:06.841Z,47.21
2022-10-21T17:41:34.445Z,47.10
2022-10-21T17:44:03.337Z,47.49
2022-10-21T17:46:30.813Z,47.53
2022-10-21T17:48:58.707Z,47.71
2022-10-21T17:51:26.480Z,47.56
2022-10-21T17:53:55.328Z,47.87
2022-10-21T17:56:26.072Z,48.06
2022-10-21T17:58:56.286Z,47.78
2022-10-21T18:01:25.451Z,47.75
2022-10-21T18:03:54.256Z,47.73
2022-10-21T18:06:21.804Z,47.88
2022-10-21T18:08:49.607Z,47.45
2022-10-21T18:11:21.848Z,47.99
2022-10-21T18:13:53.518Z,47.21
2022-10-21T18:16:24.140Z,48.05
2022-10-21T18:18:57.392Z,49.52
2022-10-21T18:21:27.764Z,48.53
2022-10-21T18:23:55.944Z,47.75
2022-10-21T18:26:27.768Z,48.47
2022-10-21T18:28:59.630Z,49.00
2022-10-21T18:31:31.100Z,48.14
2022-10-21T18:34:01.318Z,46.67
2022-10-21T18:36:29.323Z,47.91
2022-10-21T18:38:59.079Z,47.18
2022-10-21T18:41:27.462Z,47.33
2022-10-21T18:44:02.162Z,49.26
2022-10-21T18:46:31.100Z,48.20
2022-10-21T18:48:59.434Z,46.82
2022-10-21T18:51:26.946Z,46.50
2022-10-21T18:53:54.772Z,46.66
2022-10-21T18:56:27.354Z,46.56
2022-10-21T18:58:58.833Z,46.67
2022-10-21T19:01:26.943Z,47.35
2022-10-21T19:03:56.151Z,47.37
2022-10-21T19:06:48.710Z,47.88
2022-10-21T19:09:23.315Z,47.68
2022-10-21T19:11:50.884Z,48.35
2022-10-21T19:14:19.667Z,48.55
2022-10-21T19:16:48.838Z,48.48
2022-10-21T19:19:17.456Z,49.01
2022-10-21T19:21:45.078Z,48.54
2022-10-21T19:24:13.202Z,49.05
2022-10-21T19:26:45.073Z,49.61
2022-10-21T19:29:16.689Z,49.20
2022-10-21T19:34:27.072Z,49.96
2022-10-21T19:36:54.734Z,49.82
2022-10-21T19:39:22.523Z,50.04
2022-10-21T19:41:50.145Z,50.48
2022-10-21T19:44:36.589Z,49.53
2022-10-21T19:47:04.139Z,49.33
2022-10-21T19:49:33.108Z,49.52
2022-10-21T19:52:01.097Z,49.32
2022-10-21T19:54:29.101Z,49.34
2022-10-21T19:56:56.871Z,49.28
2022-10-21T19:59:24.700Z,49.79
2022-10-21T20:01:52.233Z,49.73
2022-10-21T20:04:20.069Z,49.80
2022-10-21T20:06:47.871Z,49.69
2022-10-21T20:09:15.908Z,49.36
2022-10-21T20:11:43.754Z,49.71
2022-10-21T20:14:13.488Z,49.87
2022-10-21T20:16:44.792Z,49.88
2022-10-21T20:19:12.804Z,50.26
2022-10-21T20:21:40.821Z,49.40
2022-10-21T20:24:13.064Z,49.94
2022-10-21T20:26:40.782Z,49.65
2022-10-21T20:29:09.065Z,49.40
2022-10-21T20:31:37.295Z,49.45
2022-10-21T20:34:05.675Z,49.62
2022-10-21T20:36:33.843Z,49.53
2022-10-21T20:39:03.196Z,49.64
2022-10-21T20:41:36.028Z,49.83
2022-10-21T20:44:06.890Z,50.18
2022-10-21T20:46:36.516Z,50.06
2022-10-21T20:49:06.594Z,49.78
2022-10-21T20:51:36.841Z,49.66
2022-10-21T20:54:32.586Z,49.73
2022-10-21T20:57:00.171Z,49.59
2022-10-21T20:59:30.363Z,50.17
2022-10-21T21:01:57.974Z,49.73
2022-10-21T21:04:25.789Z,49.73
2022-10-21T21:06:53.519Z,49.87
2022-10-21T21:09:38.102Z,49.88
2022-10-21T21:12:10.821Z,49.87
2022-10-21T21:14:39.226Z,49.50
2022-10-21T21:17:06.789Z,49.68
2022-10-21T21:19:34.569Z,49.20
2022-10-21T21:22:03.790Z,49.51
2022-10-21T21:24:32.394Z,49.14
2022-10-21T21:26:59.980Z,49.44
2022-10-21T21:29:27.802Z,49.53
2022-10-21T21:31:55.266Z,48.97
2022-10-21T21:34:23.083Z,49.33
2022-10-21T21:36:50.692Z,49.05
2022-10-21T21:39:18.500Z,49.13
2022-10-21T21:41:46.460Z,49.73
2022-10-21T21:44:14.571Z,49.19
2022-10-21T21:46:42.202Z,48.89
2022-10-21T21:49:10.313Z,49.42
2022-10-21T21:51:38.069Z,49.83
2022-10-21T21:54:07.919Z,49.00
2022-10-21T21:56:35.892Z,48.84
2022-10-21T21:59:04.594Z,49.87
2022-10-21T22:01:32.484Z,48.90
2022-10-21T22:04:00.784Z,49.13
2022-10-21T22:06:49.430Z,49.08
2022-10-21T22:09:23.386Z,49.18
2022-10-21T22:13:07.218Z,49.64
2022-10-21T22:15:47.440Z,50.06
2022-10-21T22:18:15.496Z,50.19
2022-10-21T22:20:43.311Z,49.88
2022-10-21T22:23:19.855Z,49.93
2022-10-21T22:25:58.803Z,49.83
2022-10-21T22:28:46.271Z,49.66
2022-10-21T22:31:29.180Z,49.91
2022-10-21T22:34:19.139Z,50.07
2022-10-21T22:36:56.951Z,50.19
2022-10-21T22:39:33.667Z,50.32
2022-10-21T22:46:41.770Z,50.28
2022-10-21T22:49:23.381Z,50.04
2022-10-21T22:51:59.422Z,50.02
2022-10-21T22:54:49.384Z,50.38
2022-10-21T22:57:20.813Z,49.96
2022-10-21T23:03:37.094Z,49.69
2022-10-21T23:06:32.385Z,49.90
2022-10-21T23:09:27.561Z,50.23
2022-10-21T23:12:31.418Z,50.43
2022-10-21T23:15:29.157Z,50.71
2022-10-21T23:18:17.819Z,50.74
2022-10-21T23:21:06.544Z,51.04
2022-10-21T23:23:52.504Z,50.97
2022-10-21T23:26:40.519Z,51.16
2022-10-21T23:29:35.424Z,51.37
2022-10-21T23:32:35.853Z,51.67
2022-10-21T23:35:22.464Z,51.91
2022-10-21T23:38:03.603Z,51.55
2022-10-21T23:40:49.706Z,52.06
2022-10-21T23:43:29.069Z,51.97
2022-10-21T23:46:04.306Z,51.83
2022-10-21T23:48:36.842Z,51.62
2022-10-21T23:51:12.610Z,51.57
2022-10-21T23:53:46.249Z,51.26
2022-10-21T23:56:47.310Z,51.15
2022-10-21T23:59:19.884Z,51.30
